Time;durP1;ratioP1;P1;durP2;ratioP2;P2;SDS_P1;SDS_P2;PMS_P1;PMS_P2;Temp;Humidity;BMP_temperature;BMP_pressure;BME280_temperature;BME280_humidity;BME280_pressure;Samples;Min_cycle;Max_cycle;Signal;HPM_P1;HPM_P2
2022/09/26 00:02:14;;;;;;;;;;;;;;;;;;5072893;28;19926;-61
2022/09/26 00:04:40;;;;;;;;;;;;;;;;;;5091605;27;19916;-62
2022/09/26 00:07:05;;;;;;;;;;;;;;;;;;5085427;28;20284;-62
2022/09/26 00:09:30;;;;;;;;;;;;;;;;;;5083760;28;19958;-62
2022/09/26 00:11:55;;;;;;;;;;;;;;;;;;5090945;28;19916;-63
2022/09/26 00:14:20;;;;;;;;;;;;;;;;;;5086442;28;19934;-63
2022/09/26 00:16:46;;;;;;;;;;;;;;;;;;5092924;28;20156;-62
2022/09/26 00:19:11;;;;;;;;;;;;;;;;;;5085657;28;20320;-63
2022/09/26 00:21:36;;;;;;;;;;;;;;;;;;5086277;28;20003;-61
2022/09/26 00:24:01;;;;;;;;;;;;;;;;;;5092277;28;19920;-63
2022/09/26 00:26:26;;;;;;;;;;;;;;;;;;5082001;28;20014;-61
2022/09/26 00:28:52;;;;;;;;;;;;;;;;;;5089269;28;20000;-62
2022/09/26 00:31:17;;;;;;;;;;;;;;;;;;5082674;27;19923;-61
2022/09/26 00:33:42;;;;;;;;;;;;;;;;;;5085952;28;19924;-60
2022/09/26 00:36:07;;;;;;;;;;;;;;;;;;5092509;28;20351;-62
2022/09/26 00:38:32;;;;;;;;;;;;;;;;;;5085529;28;20003;-61
2022/09/26 00:40:58;;;;;;;;;;;;;;;;;;5093218;28;19981;-61
2022/09/26 00:43:23;;;;;;;;;;;;;;;;;;5097156;27;19916;-61
2022/09/26 00:45:48;;;;;;;;;;;;;;;;;;5085408;27;19916;-61
2022/09/26 00:48:14;;;;;;;;;;;;;;;;;;5093153;28;19939;-62
2022/09/26 00:50:39;;;;;;;;;;;;;;;;;;5088881;28;19916;-61
2022/09/26 00:53:05;;;;;;;;;;;;;;;;;;5091398;28;19984;-61
2022/09/26 00:55:31;;;;;;;;;;;;;;;;;;5084038;28;19912;-60
2022/09/26 00:57:56;;;;;;;;;;;;;;;;;;5084637;28;20582;-62
2022/09/26 01:00:22;;;;;;;;;;;;;;;;;;5090586;28;20340;-62
2022/09/26 01:02:47;;;;;;;;;;;;;;;;;;5082804;28;19916;-63
2022/09/26 01:05:13;;;;;;;;;;;;;;;;;;5092348;28;19922;-62
2022/09/26 01:07:38;;;;;;;;;;;;;;;;;;5083884;28;19920;-63
2022/09/26 01:10:04;;;;;;;;;;;;;;;;;;5084384;28;20224;-62
2022/09/26 01:12:29;;;;;;;;;;;;;;;;;;5091809;28;20453;-62
2022/09/26 01:14:55;;;;;;;;;;;;;;;;;;5084491;28;20391;-63
2022/09/26 01:17:20;;;;;;;;;;;;;;;;;;5103881;28;20003;-62
2022/09/26 01:19:45;;;;;;;;;;;;;;;;;;5084284;28;19916;-63
2022/09/26 01:22:10;;;;;;;;;;;;;;;;;;5082959;28;20329;-62
2022/09/26 01:24:35;;;;;;;;;;;;;;;;;;5092044;28;19923;-63
2022/09/26 01:27:01;;;;;;;;;;;;;;;;;;5085884;28;19916;-63
2022/09/26 01:29:26;;;;;;;;;;;;;;;;;;5091242;28;19920;-62
2022/09/26 01:32:47;;;;;;;;;;;;;;;;;;5086177;28;20160;-62
2022/09/26 01:34:36;;;;;;;;;;;;;;;;;;5097633;27;19927;-63
2022/09/26 01:37:01;;;;;;;;;;;;;;;;;;5091541;28;19919;-62
2022/09/26 01:39:26;;;;;;;;;;;;;;;;;;5083481;28;19964;-62
2022/09/26 01:41:52;;;;;;;;;;;;;;;;;;5092933;28;19969;-62
2022/09/26 01:44:18;;;;;;;;;;;;;;;;;;5084509;28;20439;-62
2022/09/26 01:46:44;;;;;;;;;;;;;;;;;;5085294;28;20400;-62
2022/09/26 01:49:09;;;;;;;;;;;;;;;;;;5089354;28;19958;-62
2022/09/26 01:51:34;;;;;;;;;;;;;;;;;;5083114;28;20016;-63
2022/09/26 01:53:59;;;;;;;;;;;;;;;;;;5089275;28;19955;-62
2022/09/26 01:56:25;;;;;;;;;;;;;;;;;;5083633;28;19916;-62
2022/09/26 01:58:50;;;;;;;;;;;;;;;;;;5083379;28;19985;-61
2022/09/26 02:01:15;;;;;;;;;;;;;;;;;;5090397;28;19922;-62
2022/09/26 02:03:41;;;;;;;;;;;;;;;;;;5083444;28;19916;-62
2022/09/26 02:06:07;;;;;;;;;;;;;;;;;;5088359;28;19926;-63
2022/09/26 02:08:34;;;;;;;;;;;;;;;;;;5082781;28;19915;-63
2022/09/26 02:11:01;;;;;;;;;;;;;;;;;;5073583;28;19942;-63
2022/09/26 02:13:26;;;;;;;;;;;;;;;;;;5089593;28;19930;-62
2022/09/26 02:15:51;;;;;;;;;;;;;;;;;;5082396;28;19916;-62
2022/09/26 02:18:17;;;;;;;;;;;;;;;;;;5101071;27;20552;-63
2022/09/26 02:20:42;;;;;;;;;;;;;;;;;;5086001;28;19916;-62
2022/09/26 02:23:08;;;;;;;;;;;;;;;;;;5091087;28;19916;-62
2022/09/26 02:25:33;;;;;;;;;;;;;;;;;;5095041;28;19922;-62
2022/09/26 02:27:59;;;;;;;;;;;;;;;;;;5089152;28;19966;-62
2022/09/26 02:30:24;;;;;;;;;;;;;;;;;;5091575;28;20376;-63
2022/09/26 02:32:50;;;;;;;;;;;;;;;;;;5091279;28;19952;-62
2022/09/26 02:38:00;;;;;;;;;;;;;;;;;;5093210;27;19919;-63
2022/09/26 02:40:25;;;;;;;;;;;;;;;;;;5089807;28;19922;-62
2022/09/26 02:42:50;;;;;;;;;;;;;;;;;;5083106;28;19961;-62
2022/09/26 02:45:16;;;;;;;;;;;;;;;;;;5094499;28;20002;-61
2022/09/26 02:47:41;;;;;;;;;;;;;;;;;;5087681;27;19920;-62
2022/09/26 02:50:07;;;;;;;;;;;;;;;;;;5098581;28;19920;-61
2022/09/26 02:52:32;;;;;;;;;;;;;;;;;;5086126;28;20043;-61
2022/09/26 02:54:57;;;;;;;;;;;;;;;;;;5070211;28;20305;-62
2022/09/26 02:57:22;;;;;;;;;;;;;;;;;;5089505;27;19916;-62
2022/09/26 02:59:49;;;;;;;;;;;;;;;;;;5082026;28;19938;-62
2022/09/26 03:02:14;;;;;;;;;;;;;;;;;;5099497;28;19920;-61
2022/09/26 03:04:42;;;;;;;;;;;;;;;;;;5067896;28;19970;-62
2022/09/26 03:07:08;;;;;;;;;;;;;;;;;;5084680;28;19924;-62
2022/09/26 03:09:33;;;;;;;;;;;;;;;;;;5092629;28;19951;-62
2022/09/26 03:11:58;;;;;;;;;;;;;;;;;;5070565;28;19916;-62
2022/09/26 03:14:24;;;;;;;;;;;;;;;;;;5070909;28;19924;-62
2022/09/26 03:16:49;;;;;;;;;;;;;;;;;;5088933;28;19916;-62
2022/09/26 03:19:14;;;;;;;;;;;;;;;;;;5085031;27;20423;-62
2022/09/26 03:21:39;;;;;;;;;;;;;;;;;;5089002;28;19919;-61
2022/09/26 03:24:04;;;;;;;;;;;;;;;;;;5088517;28;19915;-61
2022/09/26 03:26:30;;;;;;;;;;;;;;;;;;5090102;28;19934;-62
2022/09/26 03:29:00;;;;;;;;;;;;;;;;;;5084576;28;19920;-62
2022/09/26 03:31:27;;;;;;;;;;;;;;;;;;5087095;28;19956;-62
2022/09/26 03:33:57;;;;;;;;;;;;;;;;;;5093722;28;20394;-62
2022/09/26 03:36:23;;;;;;;;;;;;;;;;;;5088611;27;19980;-63
2022/09/26 03:38:48;;;;;;;;;;;;;;;;;;5092651;28;20092;-62
2022/09/26 03:41:34;;;;;;;;;;;;;;;;;;5093047;28;19959;-62
2022/09/26 03:44:04;;;;;;;;;;;;;;;;;;5087668;28;19920;-62
2022/09/26 03:46:49;;;;;;;;;;;;;;;;;;5088733;28;19962;-63
2022/09/26 03:49:15;;;;;;;;;;;;;;;;;;5087646;27;20022;-63
2022/09/26 03:51:41;;;;;;;;;;;;;;;;;;5088036;28;20003;-61
2022/09/26 03:54:06;;;;;;;;;;;;;;;;;;5091833;28;19924;-62
2022/09/26 03:56:32;;;;;;;;;;;;;;;;;;5099695;27;19926;-62
2022/09/26 03:58:57;;;;;;;;;;;;;;;;;;5092790;28;19922;-62
2022/09/26 04:01:23;;;;;;;;;;;;;;;;;;5090265;27;19916;-61
2022/09/26 04:03:48;;;;;;;;;;;;;;;;;;5087453;28;19929;-61
2022/09/26 04:06:18;;;;;;;;;;;;;;;;;;5093900;28;19920;-61
2022/09/26 04:08:43;;;;;;;;;;;;;;;;;;5090339;28;19935;-61
2022/09/26 04:11:09;;;;;;;;;;;;;;;;;;5091240;28;20407;-63
2022/09/26 04:13:34;;;;;;;;;;;;;;;;;;5096133;27;19924;-61
2022/09/26 04:16:00;;;;;;;;;;;;;;;;;;5065947;28;19920;-62
2022/09/26 04:18:25;;;;;;;;;;;;;;;;;;5093755;28;20011;-61
2022/09/26 04:20:51;;;;;;;;;;;;;;;;;;5085146;28;20380;-62
2022/09/26 04:23:16;;;;;;;;;;;;;;;;;;5093151;28;19962;-63
2022/09/26 04:25:41;;;;;;;;;;;;;;;;;;5086298;28;19920;-62
2022/09/26 04:28:07;;;;;;;;;;;;;;;;;;5085857;28;20006;-62
2022/09/26 04:30:33;;;;;;;;;;;;;;;;;;5091793;28;19920;-62
2022/09/26 04:32:59;;;;;;;;;;;;;;;;;;5090793;28;20365;-62
2022/09/26 04:35:34;;;;;;;;;;;;;;;;;;5084016;28;20439;-61
2022/09/26 04:37:59;;;;;;;;;;;;;;;;;;5092228;28;19916;-61
2022/09/26 04:40:25;;;;;;;;;;;;;;;;;;5085870;28;19916;-61
2022/09/26 04:43:01;;;;;;;;;;;;;;;;;;5091791;28;19977;-62
2022/09/26 04:45:26;;;;;;;;;;;;;;;;;;5086208;28;20428;-62
2022/09/26 04:47:52;;;;;;;;;;;;;;;;;;5084228;28;20649;-61
2022/09/26 04:50:23;;;;;;;;;;;;;;;;;;5089618;28;19962;-61
2022/09/26 04:53:03;;;;;;;;;;;;;;;;;;5084420;28;19963;-62
2022/09/26 04:55:29;;;;;;;;;;;;;;;;;;5075401;28;20440;-62
2022/09/26 04:57:54;;;;;;;;;;;;;;;;;;5085205;28;19915;-61
2022/09/26 05:00:19;;;;;;;;;;;;;;;;;;5087911;28;19923;-63
2022/09/26 05:02:46;;;;;;;;;;;;;;;;;;5091939;28;19923;-63
2022/09/26 05:05:11;;;;;;;;;;;;;;;;;;5080439;28;20393;-63
2022/09/26 05:07:37;;;;;;;;;;;;;;;;;;5092196;28;20014;-63
2022/09/26 05:10:02;;;;;;;;;;;;;;;;;;5083060;28;19926;-63
2022/09/26 05:12:29;;;;;;;;;;;;;;;;;;5079493;28;20029;-62
2022/09/26 05:14:55;;;;;;;;;;;;;;;;;;5091649;28;19920;-61
2022/09/26 05:17:22;;;;;;;;;;;;;;;;;;5083822;28;19916;-61
2022/09/26 05:19:48;;;;;;;;;;;;;;;;;;5092807;28;19982;-62
2022/09/26 05:22:23;;;;;;;;;;;;;;;;;;5095132;28;19973;-61
2022/09/26 05:27:34;;;;;;;;;;;;;;;;;;5093472;28;19920;-62
2022/09/26 05:29:59;;;;;;;;;;;;;;;;;;5084521;28;19916;-61
2022/09/26 05:32:27;;;;;;;;;;;;;;;;;;5075272;28;19916;-63
2022/09/26 05:34:54;;;;;;;;;;;;;;;;;;5097223;28;20480;-61
2022/09/26 05:37:20;;;;;;;;;;;;;;;;;;5082324;28;19951;-61
2022/09/26 05:42:31;;;;;;;;;;;;;;;;;;5085874;28;19923;-62
2022/09/26 05:44:56;;;;;;;;;;;;;;;;;;5096634;28;19916;-62
2022/09/26 05:47:22;;;;;;;;;;;;;;;;;;5090565;28;20018;-61
2022/09/26 05:49:47;;;;;;;;;;;;;;;;;;5091612;28;20273;-61
2022/09/26 05:52:15;;;;;;;;;;;;;;;;;;5090769;28;20042;-61
2022/09/26 05:54:40;;;;;;;;;;;;;;;;;;5093735;28;20035;-61
2022/09/26 05:57:25;;;;;;;;;;;;;;;;;;5098582;28;20607;-60
2022/09/26 05:59:53;;;;;;;;;;;;;;;;;;5077806;28;19996;-61
2022/09/26 06:02:24;;;;;;;;;;;;;;;;;;5084945;28;19916;-61
2022/09/26 06:05:08;;;;;;;;;;;;;;;;;;5100347;28;19951;-61
2022/09/26 06:07:52;;;;;;;;;;;;;;;;;;5104252;28;19926;-62
2022/09/26 06:10:44;;;;;;;;;;;;;;;;;;5098015;28;19923;-61
2022/09/26 06:13:09;;;;;;;;;;;;;;;;;;5101176;28;19916;-61
2022/09/26 06:15:42;;;;;;;;;;;;;;;;;;5102683;28;19916;-61
2022/09/26 06:18:07;;;;;;;;;;;;;;;;;;5102799;28;20388;-61
2022/09/26 06:20:32;;;;;;;;;;;;;;;;;;5100447;28;19920;-61
2022/09/26 06:22:57;;;;;;;;;;;;;;;;;;5101932;28;19916;-61
2022/09/26 06:25:23;;;;;;;;;;;;;;;;;;5100365;28;20335;-62
2022/09/26 06:27:48;;;;;;;;;;;;;;;;;;5099316;28;20340;-61
2022/09/26 06:30:15;;;;;;;;;;;;;;;;;;5097743;28;20291;-61
2022/09/26 06:32:40;;;;;;;;;;;;;;;;;;5082947;28;20372;-61
2022/09/26 06:35:16;;;;;;;;;;;;;;;;;;5097548;28;19924;-60
2022/09/26 06:38:07;;;;;;;;;;;;;;;;;;5094006;28;19984;-60
2022/09/26 06:40:33;;;;;;;;;;;;;;;;;;5103412;28;20368;-62
2022/09/26 06:42:58;;;;;;;;;;;;;;;;;;5098656;28;20390;-60
2022/09/26 06:45:26;;;;;;;;;;;;;;;;;;5101198;28;19994;-60
2022/09/26 06:48:13;;;;;;;;;;;;;;;;;;5101119;28;19974;-62
2022/09/26 06:50:55;;;;;;;;;;;;;;;;;;5077314;28;20281;-63
2022/09/26 06:53:21;;;;;;;;;;;;;;;;;;5103908;28;19924;-62
2022/09/26 06:55:46;;;;;;;;;;;;;;;;;;5096199;28;20610;-59
2022/09/26 06:58:11;;;;;;;;;;;;;;;;;;5094229;28;19916;-62
2022/09/26 07:00:49;;;;;;;;;;;;;;;;;;5109366;27;19916;-61
2022/09/26 07:03:33;;;;;;;;;;;;;;;;;;5100405;28;19957;-60
2022/09/26 07:06:04;;;;;;;;;;;;;;;;;;5101652;28;19916;-61
2022/09/26 07:08:29;;;;;;;;;;;;;;;;;;5095700;28;19916;-60
2022/09/26 07:10:55;;;;;;;;;;;;;;;;;;5095579;28;19916;-61
2022/09/26 07:13:27;;;;;;;;;;;;;;;;;;5072643;28;19928;-60
2022/09/26 07:15:52;;;;;;;;;;;;;;;;;;5073825;28;20331;-60
2022/09/26 07:18:24;;;;;;;;;;;;;;;;;;5076809;28;19916;-62
2022/09/26 07:20:58;;;;;;;;;;;;;;;;;;5073798;28;20400;-60
2022/09/26 07:23:44;;;;;;;;;;;;;;;;;;5073778;28;20341;-63
2022/09/26 07:26:10;;;;;;;;;;;;;;;;;;5089809;28;19942;-61
2022/09/26 07:28:37;;;;;;;;;;;;;;;;;;5073535;28;20256;-62
2022/09/26 07:31:02;;;;;;;;;;;;;;;;;;5072378;28;20104;-61
2022/09/26 07:33:45;;;;;;;;;;;;;;;;;;5073803;28;20462;-61
2022/09/26 07:36:11;;;;;;;;;;;;;;;;;;5078245;28;19916;-63
2022/09/26 07:38:36;;;;;;;;;;;;;;;;;;5074834;28;19916;-61
2022/09/26 07:41:02;;;;;;;;;;;;;;;;;;5073255;28;19916;-62
2022/09/26 07:43:28;;;;;;;;;;;;;;;;;;5079724;28;19916;-61
2022/09/26 07:51:53;;;;;;;;;;;;;;;;;;5075058;28;19920;-61
2022/09/26 07:54:20;;;;;;;;;;;;;;;;;;5074542;28;20370;-62
2022/09/26 07:57:08;;;;;;;;;;;;;;;;;;5076305;28;19922;-61
2022/09/26 07:59:43;;;;;;;;;;;;;;;;;;5069713;28;20195;-61
2022/09/26 08:02:19;;;;;;;;;;;;;;;;;;5073802;28;19923;-61
2022/09/26 08:04:45;;;;;;;;;;;;;;;;;;5071752;28;19916;-61
2022/09/26 08:07:11;;;;;;;;;;;;;;;;;;5071602;28;19926;-61
2022/09/26 08:09:41;;;;;;;;;;;;;;;;;;5073524;28;19939;-61
2022/09/26 08:12:27;;;;;;;;;;;;;;;;;;5031539;28;19924;-61
2022/09/26 08:15:10;;;;;;;;;;;;;;;;;;5069953;28;21960;-62
2022/09/26 08:17:43;;;;;;;;;;;;;;;;;;5080292;28;20170;-61
2022/09/26 08:20:09;;;;;;;;;;;;;;;;;;5071398;28;20512;-63
2022/09/26 08:22:35;;;;;;;;;;;;;;;;;;5079721;28;19917;-61
2022/09/26 08:25:00;;;;;;;;;;;;;;;;;;5078626;28;20547;-61
2022/09/26 08:27:35;;;;;;;;;;;;;;;;;;5070227;28;19916;-62
2022/09/26 08:30:00;;;;;;;;;;;;;;;;;;5074174;28;19920;-62
2022/09/26 08:32:26;;;;;;;;;;;;;;;;;;5071698;28;19920;-63
2022/09/26 08:34:52;;;;;;;;;;;;;;;;;;5072393;28;19966;-62
2022/09/26 08:37:39;;;;;;;;;;;;;;;;;;5060019;28;19969;-63
2022/09/26 08:40:22;;;;;;;;;;;;;;;;;;5072332;28;20003;-63
2022/09/26 08:43:11;;;;;;;;;;;;;;;;;;5035291;28;19935;-63
2022/09/26 08:49:05;;;;;;;;;;;;;;;;;;5046127;28;19927;-62
2022/09/26 08:51:30;;;;;;;;;;;;;;;;;;5079196;28;19923;-63
2022/09/26 08:53:57;;;;;;;;;;;;;;;;;;5079854;28;20625;-63
2022/09/26 08:56:22;;;;;;;;;;;;;;;;;;5074181;28;19956;-62
2022/09/26 08:58:50;;;;;;;;;;;;;;;;;;5074685;28;19916;-64
2022/09/26 09:01:16;;;;;;;;;;;;;;;;;;5073114;28;19916;-63
2022/09/26 09:04:04;;;;;;;;;;;;;;;;;;5072767;28;20308;-62
2022/09/26 09:06:29;;;;;;;;;;;;;;;;;;5071249;28;20341;-63
2022/09/26 09:08:58;;;;;;;;;;;;;;;;;;5075092;28;19916;-62
2022/09/26 09:11:42;;;;;;;;;;;;;;;;;;5071914;28;19916;-62
2022/09/26 09:14:08;;;;;;;;;;;;;;;;;;5071909;28;19950;-62
2022/09/26 09:16:52;;;;;;;;;;;;;;;;;;5070410;28;20018;-62
2022/09/26 09:19:35;;;;;;;;;;;;;;;;;;5071312;28;19926;-61
2022/09/26 09:22:12;;;;;;;;;;;;;;;;;;5074227;28;19955;-61
2022/09/26 09:25:03;;;;;;;;;;;;;;;;;;5070003;28;20362;-62
2022/09/26 09:27:31;;;;;;;;;;;;;;;;;;5079881;28;19926;-61
2022/09/26 09:29:56;;;;;;;;;;;;;;;;;;5071961;28;20605;-62
2022/09/26 09:33:00;;;;;;;;;;;;;;;;;;5065899;28;20288;-62
2022/09/26 09:35:44;;;;;;;;;;;;;;;;;;5076583;28;20607;-61
2022/09/26 09:38:20;;;;;;;;;;;;;;;;;;5077962;28;19923;-62
2022/09/26 09:41:05;;;;;;;;;;;;;;;;;;5031589;28;20189;-62
2022/09/26 09:43:31;;;;;;;;;;;;;;;;;;5073644;28;20812;-62
2022/09/26 09:45:56;;;;;;;;;;;;;;;;;;5074964;28;19915;-61
2022/09/26 09:48:21;;;;;;;;;;;;;;;;;;5076172;28;19919;-62
2022/09/26 09:50:46;;;;;;;;;;;;;;;;;;5081627;28;19943;-62
2022/09/26 09:53:12;;;;;;;;;;;;;;;;;;5076342;28;19917;-63
2022/09/26 09:55:41;;;;;;;;;;;;;;;;;;5075778;28;19942;-62
2022/09/26 09:58:06;;;;;;;;;;;;;;;;;;5075984;28;20318;-61
2022/09/26 10:00:31;;;;;;;;;;;;;;;;;;5065223;28;19924;-62
2022/09/26 10:03:06;;;;;;;;;;;;;;;;;;5070131;28;19912;-62
2022/09/26 10:05:34;;;;;;;;;;;;;;;;;;5080665;28;20380;-62
2022/09/26 10:08:00;;;;;;;;;;;;;;;;;;5081865;28;20298;-61
2022/09/26 10:10:44;;;;;;;;;;;;;;;;;;5073141;28;19943;-62
2022/09/26 10:13:44;;;;;;;;;;;;;;;;;;5074000;28;19970;-61
2022/09/26 10:16:25;;;;;;;;;;;;;;;;;;5089229;28;19916;-62
2022/09/26 10:18:59;;;;;;;;;;;;;;;;;;5074184;28;19927;-62
2022/09/26 10:21:25;;;;;;;;;;;;;;;;;;5074301;28;19952;-62
2022/09/26 10:23:50;;;;;;;;;;;;;;;;;;5074064;28;20464;-62
2022/09/26 10:26:39;;;;;;;;;;;;;;;;;;5074716;28;19916;-62
2022/09/26 10:29:06;;;;;;;;;;;;;;;;;;5072537;28;19916;-63
2022/09/26 10:31:34;;;;;;;;;;;;;;;;;;5088235;28;20098;-62
2022/09/26 10:34:11;;;;;;;;;;;;;;;;;;5076698;28;19924;-62
2022/09/26 10:36:36;;;;;;;;;;;;;;;;;;5077723;28;19916;-62
2022/09/26 10:41:51;;;;;;;;;;;;;;;;;;5071093;28;19917;-62
2022/09/26 10:44:16;;;;;;;;;;;;;;;;;;5074623;28;19923;-62
2022/09/26 10:47:07;;;;;;;;;;;;;;;;;;5082199;28;19989;-62
2022/09/26 10:49:50;;;;;;;;;;;;;;;;;;5077239;28;19961;-62
2022/09/26 10:52:39;;;;;;;;;;;;;;;;;;5068654;28;19916;-62
2022/09/26 10:55:05;;;;;;;;;;;;;;;;;;5073995;28;19928;-62
2022/09/26 10:57:32;;;;;;;;;;;;;;;;;;5076906;28;19923;-62
2022/09/26 10:59:58;;;;;;;;;;;;;;;;;;5090230;28;19923;-62
2022/09/26 11:02:23;;;;;;;;;;;;;;;;;;5067606;28;19920;-62
2022/09/26 11:07:42;;;;;;;;;;;;;;;;;;5075992;28;19960;-62
2022/09/26 11:10:28;;;;;;;;;;;;;;;;;;5064418;28;20003;-62
2022/09/26 11:13:01;;;;;;;;;;;;;;;;;;5075883;28;19921;-62
2022/09/26 11:15:27;;;;;;;;;;;;;;;;;;5089700;28;19928;-63
2022/09/26 11:17:52;;;;;;;;;;;;;;;;;;5072721;28;19956;-62
2022/09/26 11:20:18;;;;;;;;;;;;;;;;;;5082513;28;19913;-63
2022/09/26 11:22:43;;;;;;;;;;;;;;;;;;5083306;28;20642;-63
2022/09/26 11:25:08;;;;;;;;;;;;;;;;;;5075061;28;19916;-63
2022/09/26 11:27:34;;;;;;;;;;;;;;;;;;5074613;28;19923;-62
2022/09/26 11:30:01;;;;;;;;;;;;;;;;;;5075527;28;19982;-62
2022/09/26 11:32:26;;;;;;;;;;;;;;;;;;5074909;28;19962;-62
2022/09/26 11:35:01;;;;;;;;;;;;;;;;;;5075541;28;19951;-62
2022/09/26 11:37:29;;;;;;;;;;;;;;;;;;5089786;28;19924;-62
2022/09/26 11:39:56;;;;;;;;;;;;;;;;;;5090934;28;20563;-63
2022/09/26 11:42:23;;;;;;;;;;;;;;;;;;5074569;28;20017;-64
2022/09/26 11:44:48;;;;;;;;;;;;;;;;;;5074923;28;19916;-64
2022/09/26 11:47:16;;;;;;;;;;;;;;;;;;5074679;28;20392;-64
2022/09/26 11:49:49;;;;;;;;;;;;;;;;;;5076922;28;19948;-64
2022/09/26 11:52:25;;;;;;;;;;;;;;;;;;5081494;28;19920;-65
2022/09/26 11:54:50;;;;;;;;;;;;;;;;;;5072344;28;20306;-64
2022/09/26 11:57:15;;;;;;;;;;;;;;;;;;5073899;28;19923;-64
2022/09/26 11:59:41;;;;;;;;;;;;;;;;;;5079779;28;19962;-64
2022/09/26 12:02:06;;;;;;;;;;;;;;;;;;5073829;28;20292;-65
2022/09/26 12:04:31;;;;;;;;;;;;;;;;;;5075441;28;20217;-65
2022/09/26 12:07:00;;;;;;;;;;;;;;;;;;5077555;28;19927;-65
2022/09/26 12:09:26;;;;;;;;;;;;;;;;;;5083608;28;19951;-65
2022/09/26 12:11:51;;;;;;;;;;;;;;;;;;5078399;28;19963;-66
2022/09/26 12:14:16;;;;;;;;;;;;;;;;;;5082386;28;20338;-66
2022/09/26 12:16:45;;;;;;;;;;;;;;;;;;5076667;28;20293;-65
2022/09/26 12:19:10;;;;;;;;;;;;;;;;;;5080791;28;19927;-66
2022/09/26 12:21:35;;;;;;;;;;;;;;;;;;5078779;28;19920;-65
2022/09/26 12:24:01;;;;;;;;;;;;;;;;;;5076466;28;19921;-65
2022/09/26 12:26:26;;;;;;;;;;;;;;;;;;5076538;28;19956;-65
2022/09/26 12:28:51;;;;;;;;;;;;;;;;;;5071005;28;20416;-64
2022/09/26 12:31:16;;;;;;;;;;;;;;;;;;5076807;28;19920;-63
2022/09/26 12:33:41;;;;;;;;;;;;;;;;;;5081520;28;19946;-63
2022/09/26 12:36:07;;;;;;;;;;;;;;;;;;5074011;28;19912;-62
2022/09/26 12:38:33;;;;;;;;;;;;;;;;;;5075587;28;19924;-61
2022/09/26 12:41:01;;;;;;;;;;;;;;;;;;5077623;28;20407;-58
2022/09/26 12:43:26;;;;;;;;;;;;;;;;;;5079463;28;19917;-57
2022/09/26 12:45:52;;;;;;;;;;;;;;;;;;5080587;28;19916;-58
2022/09/26 12:48:17;;;;;;;;;;;;;;;;;;5077332;28;19917;-58
2022/09/26 12:50:43;;;;;;;;;;;;;;;;;;5077355;28;20284;-58
2022/09/26 12:53:09;;;;;;;;;;;;;;;;;;5074291;28;19920;-58
2022/09/26 12:55:34;;;;;;;;;;;;;;;;;;5079345;28;20025;-59
2022/09/26 12:57:59;;;;;;;;;;;;;;;;;;5075390;28;19990;-59
2022/09/26 13:00:25;;;;;;;;;;;;;;;;;;5076234;28;19916;-59
2022/09/26 13:02:51;;;;;;;;;;;;;;;;;;5073412;28;20003;-60
2022/09/26 13:05:16;;;;;;;;;;;;;;;;;;5073638;28;20224;-60
2022/09/26 13:07:41;;;;;;;;;;;;;;;;;;5071032;28;20392;-61
2022/09/26 13:10:06;;;;;;;;;;;;;;;;;;5077260;28;20359;-61
2022/09/26 13:12:32;;;;;;;;;;;;;;;;;;5078627;28;19927;-61
2022/09/26 13:14:59;;;;;;;;;;;;;;;;;;5076047;28;20013;-62
2022/09/26 13:17:24;;;;;;;;;;;;;;;;;;5077520;28;19920;-61
2022/09/26 13:19:50;;;;;;;;;;;;;;;;;;5076829;28;19923;-61
2022/09/26 13:22:15;;;;;;;;;;;;;;;;;;5076158;28;20297;-61
2022/09/26 13:24:41;;;;;;;;;;;;;;;;;;5075378;28;19927;-61
2022/09/26 13:27:06;;;;;;;;;;;;;;;;;;5073529;28;19917;-61
2022/09/26 13:29:32;;;;;;;;;;;;;;;;;;5075719;28;21524;-61
2022/09/26 13:31:57;;;;;;;;;;;;;;;;;;5077227;28;20432;-62
2022/09/26 13:34:24;;;;;;;;;;;;;;;;;;5075490;28;20018;-61
2022/09/26 13:36:49;;;;;;;;;;;;;;;;;;5072772;28;20380;-62
2022/09/26 13:39:14;;;;;;;;;;;;;;;;;;5076078;28;19920;-62
2022/09/26 13:41:39;;;;;;;;;;;;;;;;;;5075285;28;19920;-61
2022/09/26 13:44:05;;;;;;;;;;;;;;;;;;5072364;28;19920;-61
2022/09/26 13:46:31;;;;;;;;;;;;;;;;;;5073350;28;19969;-62
2022/09/26 13:48:59;;;;;;;;;;;;;;;;;;5074768;28;19963;-62
2022/09/26 13:51:24;;;;;;;;;;;;;;;;;;5075771;28;20400;-62
2022/09/26 13:53:49;;;;;;;;;;;;;;;;;;5076777;28;20019;-62
2022/09/26 13:56:15;;;;;;;;;;;;;;;;;;5077282;28;19981;-62
2022/09/26 13:58:40;;;;;;;;;;;;;;;;;;5073447;28;19935;-62
2022/09/26 14:01:05;;;;;;;;;;;;;;;;;;5073709;28;20223;-62
2022/09/26 14:03:31;;;;;;;;;;;;;;;;;;5074619;28;19920;-62
2022/09/26 14:05:56;;;;;;;;;;;;;;;;;;5076870;28;19922;-63
2022/09/26 14:11:07;;;;;;;;;;;;;;;;;;5074055;28;19924;-62
2022/09/26 14:13:32;;;;;;;;;;;;;;;;;;5073811;28;19916;-62
2022/09/26 14:15:58;;;;;;;;;;;;;;;;;;5076093;28;20565;-63
2022/09/26 14:18:23;;;;;;;;;;;;;;;;;;5075620;28;20688;-62
2022/09/26 14:20:49;;;;;;;;;;;;;;;;;;5082329;28;20011;-63
2022/09/26 14:23:14;;;;;;;;;;;;;;;;;;5077044;28;19920;-63
2022/09/26 14:25:39;;;;;;;;;;;;;;;;;;5078758;28;20276;-63
2022/09/26 14:28:04;;;;;;;;;;;;;;;;;;5081459;28;19920;-63
2022/09/26 14:30:32;;;;;;;;;;;;;;;;;;5080734;28;19926;-63
2022/09/26 14:32:57;;;;;;;;;;;;;;;;;;5076157;28;20465;-63
2022/09/26 14:35:23;;;;;;;;;;;;;;;;;;5075905;28;19928;-63
2022/09/26 14:37:48;;;;;;;;;;;;;;;;;;5080335;28;19916;-63
2022/09/26 14:40:15;;;;;;;;;;;;;;;;;;5082817;28;19923;-63
2022/09/26 14:42:40;;;;;;;;;;;;;;;;;;5082434;28;19920;-63
2022/09/26 14:45:05;;;;;;;;;;;;;;;;;;5078257;28;20359;-63
2022/09/26 14:47:31;;;;;;;;;;;;;;;;;;5078794;28;20332;-63
2022/09/26 14:49:56;;;;;;;;;;;;;;;;;;5080397;28;19923;-63
2022/09/26 14:52:21;;;;;;;;;;;;;;;;;;5079330;28;19943;-63
2022/09/26 14:54:46;;;;;;;;;;;;;;;;;;5082644;28;19931;-64
2022/09/26 14:57:12;;;;;;;;;;;;;;;;;;5081362;28;19917;-63
2022/09/26 14:59:38;;;;;;;;;;;;;;;;;;5077469;28;20009;-63
2022/09/26 15:02:04;;;;;;;;;;;;;;;;;;5084474;28;19916;-62
2022/09/26 15:04:29;;;;;;;;;;;;;;;;;;5081723;28;20420;-62
2022/09/26 15:06:54;;;;;;;;;;;;;;;;;;5075928;28;20696;-62
2022/09/26 15:09:19;;;;;;;;;;;;;;;;;;5074054;28;20485;-62
2022/09/26 15:11:45;;;;;;;;;;;;;;;;;;5079319;28;19942;-63
2022/09/26 15:14:10;;;;;;;;;;;;;;;;;;5069740;28;20012;-63
2022/09/26 15:16:36;;;;;;;;;;;;;;;;;;5072719;28;19916;-63
2022/09/26 15:19:05;;;;;;;;;;;;;;;;;;5073225;28;19927;-62
2022/09/26 15:21:34;;;;;;;;;;;;;;;;;;5077144;28;20388;-63
2022/09/26 15:23:59;;;;;;;;;;;;;;;;;;5070455;28;19923;-62
2022/09/26 15:26:24;;;;;;;;;;;;;;;;;;5074912;28;19921;-62
2022/09/26 15:28:50;;;;;;;;;;;;;;;;;;5072985;28;19917;-62
2022/09/26 15:31:15;;;;;;;;;;;;;;;;;;5073790;28;19923;-62
2022/09/26 15:33:40;;;;;;;;;;;;;;;;;;5075473;28;19931;-62
2022/09/26 15:36:06;;;;;;;;;;;;;;;;;;5076743;28;19930;-63
2022/09/26 15:38:31;;;;;;;;;;;;;;;;;;5073171;28;19923;-62
2022/09/26 15:40:56;;;;;;;;;;;;;;;;;;5073536;28;19916;-62
2022/09/26 15:43:21;;;;;;;;;;;;;;;;;;5073970;28;19920;-62
2022/09/26 15:45:47;;;;;;;;;;;;;;;;;;5075592;28;19916;-63
2022/09/26 15:48:13;;;;;;;;;;;;;;;;;;5050974;28;19916;-63
2022/09/26 15:50:39;;;;;;;;;;;;;;;;;;5076132;28;19923;-63
2022/09/26 15:53:04;;;;;;;;;;;;;;;;;;5078060;28;19917;-62
2022/09/26 15:55:29;;;;;;;;;;;;;;;;;;5072509;28;20308;-63
2022/09/26 15:57:54;;;;;;;;;;;;;;;;;;5073895;28;20614;-63
2022/09/26 16:00:20;;;;;;;;;;;;;;;;;;5076013;28;19948;-62
2022/09/26 16:02:45;;;;;;;;;;;;;;;;;;5075206;28;20042;-63
2022/09/26 16:05:10;;;;;;;;;;;;;;;;;;5073093;28;19939;-63
2022/09/26 16:07:40;;;;;;;;;;;;;;;;;;5072085;28;19959;-62
2022/09/26 16:10:05;;;;;;;;;;;;;;;;;;5073152;28;20331;-63
2022/09/26 16:12:30;;;;;;;;;;;;;;;;;;5074756;28;19916;-63
2022/09/26 16:14:57;;;;;;;;;;;;;;;;;;5072319;28;20454;-63
2022/09/26 16:17:22;;;;;;;;;;;;;;;;;;5072515;28;19995;-63
2022/09/26 16:19:47;;;;;;;;;;;;;;;;;;5073228;28;20010;-63
2022/09/26 16:22:12;;;;;;;;;;;;;;;;;;5073511;28;19984;-63
2022/09/26 16:24:38;;;;;;;;;;;;;;;;;;5069177;28;19924;-63
2022/09/26 16:27:05;;;;;;;;;;;;;;;;;;5071982;28;19916;-63
2022/09/26 16:29:31;;;;;;;;;;;;;;;;;;5072018;28;19924;-63
2022/09/26 16:31:58;;;;;;;;;;;;;;;;;;5073779;28;19977;-63
2022/09/26 16:34:25;;;;;;;;;;;;;;;;;;5072055;28;19924;-63
2022/09/26 16:36:50;;;;;;;;;;;;;;;;;;5068426;28;19923;-63
2022/09/26 16:39:15;;;;;;;;;;;;;;;;;;5071102;28;19943;-63
2022/09/26 16:41:43;;;;;;;;;;;;;;;;;;5068793;28;19920;-63
2022/09/26 16:44:09;;;;;;;;;;;;;;;;;;5073511;28;20030;-63
2022/09/26 16:46:34;;;;;;;;;;;;;;;;;;5070016;28;19972;-63
2022/09/26 16:49:00;;;;;;;;;;;;;;;;;;5072168;28;19920;-63
2022/09/26 16:51:26;;;;;;;;;;;;;;;;;;5075668;28;19928;-63
2022/09/26 16:53:52;;;;;;;;;;;;;;;;;;5073716;28;19929;-63
2022/09/26 16:56:17;;;;;;;;;;;;;;;;;;5070276;28;19920;-63
2022/09/26 16:58:43;;;;;;;;;;;;;;;;;;5068873;28;19931;-64
2022/09/26 17:03:52;;;;;;;;;;;;;;;;;;5070483;28;19917;-63
2022/09/26 17:06:17;;;;;;;;;;;;;;;;;;5073101;28;19965;-63
2022/09/26 17:08:42;;;;;;;;;;;;;;;;;;5071321;28;19924;-63
2022/09/26 17:11:08;;;;;;;;;;;;;;;;;;5071124;28;19920;-63
2022/09/26 17:13:34;;;;;;;;;;;;;;;;;;5068756;28;19924;-63
2022/09/26 17:16:02;;;;;;;;;;;;;;;;;;5070767;28;20164;-61
2022/09/26 17:18:31;;;;;;;;;;;;;;;;;;5071684;28;19939;-62
2022/09/26 17:20:57;;;;;;;;;;;;;;;;;;5071914;28;19926;-62